CheckWX is a tool to help pilots better visualize weather data.  It is not intended as a substitute for an official pre-flight weather briefing.

23:45:24 UTC

EGKB METAR
London Biggin Hill Airport
London, United Kingdom
Current

2 hours ago

EGKB 192120Z 19013KT 9999 BKN005 17/17 Q1009 REDZ
Observed
Jul-19 @ 21:20 UTC
Wind
  • 190° at 13 KTS
Visibility
10,000+ meters
Flight Rules
IFR
Cloud Levels
  • Broken at 500' AGL
Temperature
17°C / 63°F
Dewpoint
17°C / 63°F
Humidity
100%
Altimeter
29.79" Hg
Pressure
1008.92 hPa
Previous

3 hours ago

EGKB 192050Z 19013KT 9999 DZ BKN005 17/17 Q1010
Observed
Jul-19 @ 20:50 UTC
Wind
  • 190° at 13 KTS
Visibility
10,000+ meters
Flight Rules
IFR
Conditions
Drizzle
Cloud Levels
  • Broken at 500' AGL
Temperature
17°C / 63°F
Dewpoint
17°C / 63°F
Humidity
100%
Altimeter
29.82" Hg
Pressure
1009.92 hPa
Previous

3 hours ago

EGKB 192020Z 20013KT 9999 BKN006 17/17 Q1010
Observed
Jul-19 @ 20:20 UTC
Wind
  • 200° at 13 KTS
Visibility
10,000+ meters
Flight Rules
IFR
Cloud Levels
  • Broken at 600' AGL
Temperature
17°C / 63°F
Dewpoint
17°C / 63°F
Humidity
100%
Altimeter
29.82" Hg
Pressure
1009.92 hPa